createdAt,value
2023-03-20T00:01:21.551Z,100746.72
2023-03-20T00:03:48.320Z,100745.06
2023-03-20T00:06:19.179Z,100747.81
2023-03-20T00:08:46.677Z,100745.69
2023-03-20T00:11:33.350Z,100753.47
2023-03-20T00:14:01.566Z,100752.25
2023-03-20T00:16:32.096Z,100760.22
2023-03-20T00:18:59.218Z,100755.16
2023-03-20T00:21:26.300Z,100750.97
2023-03-20T00:23:54.460Z,100741.81
2023-03-20T00:26:21.577Z,100752.06
2023-03-20T00:28:48.490Z,100756.31
2023-03-20T00:31:26.849Z,100742.72
2023-03-20T00:33:54.761Z,100750.34
2023-03-20T00:36:21.341Z,100754.56
2023-03-20T00:38:47.911Z,100746.84
2023-03-20T00:41:23.161Z,100754.13
2023-03-20T00:43:50.637Z,100757.84
2023-03-20T00:46:18.142Z,100758.16
2023-03-20T00:48:44.754Z,100757.75
2023-03-20T00:51:11.386Z,100759.41
2023-03-20T00:53:37.989Z,100757.97
2023-03-20T00:56:05.097Z,100756.66
2023-03-20T00:58:32.814Z,100755.94
2023-03-20T01:00:59.406Z,100753.72
2023-03-20T01:03:26.218Z,100751.59
2023-03-20T01:05:52.761Z,100759.22
2023-03-20T01:08:26.004Z,100760.03
2023-03-20T01:10:55.639Z,100755.75
2023-03-20T01:13:27.370Z,100760.03
2023-03-20T01:15:54.605Z,100756.31
2023-03-20T01:18:22.719Z,100759.69
2023-03-20T01:20:49.329Z,100749.50
2023-03-20T01:23:16.264Z,100761.44
2023-03-20T01:25:42.825Z,100759.47
2023-03-20T01:28:20.833Z,100761.88
2023-03-20T01:30:47.731Z,100756.19
2023-03-20T01:33:22.714Z,100765.97
2023-03-20T01:35:53.409Z,100757.19
2023-03-20T01:38:26.484Z,100761.06
2023-03-20T01:41:08.471Z,100762.69
2023-03-20T01:43:37.902Z,100763.22
2023-03-20T01:46:24.891Z,100767.47
2023-03-20T01:48:55.011Z,100774.91
2023-03-20T01:51:25.868Z,100773.28
2023-03-20T01:54:15.991Z,100783.28
2023-03-20T01:57:10.742Z,100773.06
2023-03-20T01:59:50.036Z,100777.25
2023-03-20T02:02:19.609Z,100783.91
2023-03-20T02:04:47.510Z,100784.69
2023-03-20T02:07:17.094Z,100781.56
2023-03-20T02:10:03.254Z,100791.44
2023-03-20T02:12:52.696Z,100790.63
2023-03-20T02:15:28.036Z,100784.94
2023-03-20T02:18:07.069Z,100785.75
2023-03-20T02:20:45.140Z,100779.44
2023-03-20T02:23:27.396Z,100774.53
2023-03-20T02:26:13.578Z,100776.06
2023-03-20T02:29:19.159Z,100776.88
2023-03-20T02:31:54.115Z,100773.81
2023-03-20T02:34:42.513Z,100775.44
2023-03-20T02:37:36.676Z,100779.63
2023-03-20T02:40:23.828Z,100782.09
2023-03-20T02:43:02.407Z,100786.88
2023-03-20T02:45:35.007Z,100786.16
2023-03-20T02:48:18.533Z,100787.19
2023-03-20T02:50:53.206Z,100784.94
2023-03-20T02:53:22.349Z,100783.94
2023-03-20T02:56:33.991Z,100784.31
2023-03-20T02:59:08.363Z,100789.00
2023-03-20T03:01:46.412Z,100785.44
2023-03-20T03:04:16.520Z,100790.44
2023-03-20T03:06:43.595Z,100783.13
2023-03-20T03:09:22.543Z,100786.59
2023-03-20T03:11:55.948Z,100769.47
2023-03-20T03:14:52.648Z,100773.34
2023-03-20T03:17:20.178Z,100784.44
2023-03-20T03:19:48.803Z,100785.75
2023-03-20T03:22:19.156Z,100789.34
2023-03-20T03:24:50.871Z,100796.25
2023-03-20T03:27:26.116Z,100793.81
2023-03-20T03:30:01.590Z,100796.75
2023-03-20T03:32:49.179Z,100796.94
2023-03-20T03:35:17.995Z,100795.56
2023-03-20T03:38:07.722Z,100776.53
2023-03-20T03:41:23.356Z,100791.66
2023-03-20T03:44:02.077Z,100795.56
2023-03-20T03:46:46.296Z,100788.44
2023-03-20T03:49:22.122Z,100786.81
2023-03-20T03:51:52.646Z,100781.09
2023-03-20T03:54:22.231Z,100775.28
2023-03-20T03:57:09.036Z,100780.06
2023-03-20T03:59:37.719Z,100785.56
2023-03-20T04:02:05.772Z,100790.44
2023-03-20T04:04:33.326Z,100781.78
2023-03-20T04:06:59.939Z,100783.41
2023-03-20T04:09:28.765Z,100784.94
2023-03-20T04:11:55.394Z,100795.31
2023-03-20T04:14:22.207Z,100796.75
2023-03-20T04:16:50.332Z,100805.66
2023-03-20T04:19:16.932Z,100806.31
2023-03-20T04:21:45.784Z,100805.94
2023-03-20T04:24:12.385Z,100821.59
2023-03-20T04:26:40.499Z,100822.59
2023-03-20T04:29:07.332Z,100818.94
2023-03-20T04:31:52.514Z,100828.34
2023-03-20T04:34:37.815Z,100820.31
2023-03-20T04:37:13.769Z,100821.41
2023-03-20T04:39:57.239Z,100832.00
2023-03-20T04:42:23.919Z,100830.47
2023-03-20T04:44:55.892Z,100827.09
2023-03-20T04:47:23.888Z,100823.78
2023-03-20T04:49:51.542Z,100824.97
2023-03-20T04:52:18.814Z,100820.78
2023-03-20T04:54:45.892Z,100819.38
2023-03-20T04:57:12.446Z,100826.31
2023-03-20T04:59:39.504Z,100818.16
2023-03-20T05:02:06.688Z,100823.84
2023-03-20T05:04:33.363Z,100817.44
2023-03-20T05:07:00.748Z,100819.38
2023-03-20T05:09:36.356Z,100825.97
2023-03-20T05:12:04.995Z,100827.72
2023-03-20T05:14:50.846Z,100832.94
2023-03-20T05:17:38.657Z,100828.03
2023-03-20T05:20:27.635Z,100835.69
2023-03-20T05:23:07.363Z,100834.13
2023-03-20T05:25:50.159Z,100834.00
2023-03-20T05:28:32.164Z,100831.47
2023-03-20T05:31:16.249Z,100834.22
2023-03-20T05:33:57.547Z,100832.63
2023-03-20T05:36:34.742Z,100838.94
2023-03-20T05:39:19.995Z,100839.75
2023-03-20T05:42:02.139Z,100844.53
2023-03-20T05:44:45.533Z,100844.81
2023-03-20T05:47:41.526Z,100855.16
2023-03-20T05:50:28.327Z,100842.25
2023-03-20T05:53:07.430Z,100843.69
2023-03-20T05:55:44.641Z,100840.56
2023-03-20T05:58:29.383Z,100840.75
2023-03-20T06:01:08.630Z,100818.78
2023-03-20T06:03:56.982Z,100830.59
2023-03-20T06:06:55.965Z,100834.25
2023-03-20T06:09:23.445Z,100833.25
2023-03-20T06:11:50.557Z,100832.94
2023-03-20T06:14:18.233Z,100844.66
2023-03-20T06:16:51.180Z,100844.25
2023-03-20T06:19:17.930Z,100840.78
2023-03-20T06:21:45.620Z,100861.56
2023-03-20T06:24:15.939Z,100862.38
2023-03-20T06:26:42.735Z,100820.38
2023-03-20T06:29:11.576Z,100874.16
2023-03-20T06:31:38.229Z,100883.47
2023-03-20T06:34:07.022Z,100876.63
2023-03-20T06:36:40.379Z,100867.66
2023-03-20T06:39:14.421Z,100875.22
2023-03-20T06:41:41.482Z,100889.78
2023-03-20T06:44:10.169Z,100885.91
2023-03-20T06:47:03.734Z,100882.63
2023-03-20T06:49:31.130Z,100887.84
2023-03-20T06:51:59.277Z,100880.72
2023-03-20T06:54:26.445Z,100893.00
2023-03-20T06:56:53.770Z,100887.63
2023-03-20T06:59:21.419Z,100900.47
2023-03-20T07:01:48.650Z,100897.41
2023-03-20T07:04:15.587Z,100905.47
2023-03-20T07:06:48.082Z,100902.19
2023-03-20T07:09:14.740Z,100911.66
2023-03-20T07:11:41.658Z,100911.91
2023-03-20T07:14:08.962Z,100910.78
2023-03-20T07:16:46.733Z,100913.84
2023-03-20T07:19:14.054Z,100911.19
2023-03-20T07:21:43.550Z,100891.63
2023-03-20T07:24:10.705Z,100900.47
2023-03-20T07:26:37.413Z,100900.09
2023-03-20T07:29:04.230Z,100882.78
2023-03-20T07:31:33.034Z,100905.09
2023-03-20T07:34:09.680Z,100888.84
2023-03-20T07:36:36.294Z,100895.59
2023-03-20T07:39:03.016Z,100894.19
2023-03-20T07:41:31.241Z,100892.34
2023-03-20T07:44:08.392Z,100891.59
2023-03-20T07:46:48.140Z,100900.19
2023-03-20T07:49:18.284Z,100888.78
2023-03-20T07:51:46.477Z,100893.25
2023-03-20T07:54:13.093Z,100901.91
2023-03-20T07:56:39.649Z,100892.00
2023-03-20T07:59:06.713Z,100887.13
2023-03-20T08:01:33.353Z,100906.59
2023-03-20T08:04:00.284Z,100899.88
2023-03-20T08:06:27.034Z,100903.16
2023-03-20T08:08:53.810Z,100910.88
2023-03-20T08:11:20.744Z,100914.25
2023-03-20T08:13:47.340Z,100912.41
2023-03-20T08:16:14.023Z,100917.59
2023-03-20T08:18:40.607Z,100919.84
2023-03-20T08:21:07.399Z,100919.84
2023-03-20T08:23:33.978Z,100900.50
2023-03-20T08:26:00.565Z,100929.44
2023-03-20T08:28:45.900Z,100928.41
2023-03-20T08:31:13.595Z,100917.50
2023-03-20T08:33:40.419Z,100908.34
2023-03-20T08:36:07.496Z,100932.69
2023-03-20T08:38:34.116Z,100935.34
2023-03-20T08:41:00.778Z,100925.56
2023-03-20T08:43:27.388Z,100938.50
2023-03-20T08:45:54.077Z,100931.84
2023-03-20T08:48:21.018Z,100927.78
2023-03-20T08:50:50.439Z,100941.03
2023-03-20T08:53:17.022Z,100938.59
2023-03-20T08:55:50.551Z,100936.16
2023-03-20T08:58:17.888Z,100936.56
2023-03-20T09:00:44.613Z,100943.69
2023-03-20T09:03:14.681Z,100944.69
2023-03-20T09:05:43.375Z,100924.34
2023-03-20T09:08:09.959Z,100951.66
2023-03-20T09:10:36.651Z,100957.56
2023-03-20T09:13:15.535Z,100966.31
2023-03-20T09:15:49.834Z,100965.69
2023-03-20T09:18:16.391Z,100966.84
2023-03-20T09:20:43.158Z,100972.94
2023-03-20T09:23:09.765Z,100977.63
2023-03-20T09:25:36.497Z,100984.03
2023-03-20T09:28:03.442Z,100983.00
2023-03-20T09:30:30.053Z,100974.56
2023-03-20T09:32:56.655Z,100967.72
2023-03-20T09:35:23.328Z,100988.53
2023-03-20T09:37:50.250Z,100988.03
2023-03-20T09:40:27.487Z,100991.78
2023-03-20T09:43:17.247Z,100991.28
2023-03-20T09:46:09.972Z,100994.22
2023-03-20T09:48:54.743Z,100985.28
2023-03-20T09:51:38.463Z,100990.78
2023-03-20T09:54:13.318Z,100994.63
2023-03-20T09:56:39.959Z,100988.09
2023-03-20T09:59:06.656Z,100981.47
2023-03-20T10:01:55.835Z,100996.88
2023-03-20T10:04:24.667Z,100984.88
2023-03-20T10:06:51.324Z,100991.28
2023-03-20T10:09:24.896Z,100976.28
2023-03-20T10:12:13.921Z,100984.66
2023-03-20T10:14:58.957Z,100982.94
2023-03-20T10:17:44.483Z,100979.38
2023-03-20T10:20:27.801Z,100974.75
2023-03-20T10:22:57.932Z,100976.31
2023-03-20T10:25:28.734Z,100984.75
2023-03-20T10:28:11.447Z,100981.41
2023-03-20T10:30:47.186Z,100980.59
2023-03-20T10:33:29.007Z,100973.66
2023-03-20T10:36:18.018Z,100976.41
2023-03-20T10:38:53.706Z,100975.28
2023-03-20T10:41:23.222Z,100958.16
2023-03-20T10:43:51.441Z,100962.47
2023-03-20T10:46:31.724Z,100958.44
2023-03-20T10:49:17.768Z,100953.38
2023-03-20T10:51:47.286Z,100956.75
2023-03-20T10:54:20.777Z,100962.06
2023-03-20T10:56:48.065Z,100962.84
2023-03-20T10:59:24.868Z,100943.88
2023-03-20T11:01:51.513Z,100950.41
2023-03-20T11:04:18.116Z,100948.56
2023-03-20T11:06:52.573Z,100956.22
2023-03-20T11:09:24.656Z,100936.97
2023-03-20T11:11:52.704Z,100946.53
2023-03-20T11:14:21.336Z,100949.38
2023-03-20T11:16:49.867Z,100949.38
2023-03-20T11:19:17.439Z,100952.66
2023-03-20T11:21:56.071Z,100935.72
2023-03-20T11:24:27.500Z,100937.75
2023-03-20T11:26:54.122Z,100945.91
2023-03-20T11:29:29.626Z,100947.84
2023-03-20T11:31:57.474Z,100916.97
2023-03-20T11:34:26.634Z,100936.53
2023-03-20T11:37:10.415Z,100940.41
2023-03-20T11:39:38.255Z,100934.72
2023-03-20T11:42:19.486Z,100930.00
2023-03-20T11:44:46.381Z,100924.91
2023-03-20T11:47:14.951Z,100922.03
2023-03-20T11:50:02.884Z,100928.78
2023-03-20T11:52:32.815Z,100915.50
2023-03-20T11:55:01.136Z,100900.44
2023-03-20T11:57:40.379Z,100918.38
2023-03-20T12:00:29.823Z,100917.44
2023-03-20T12:02:56.407Z,100902.28
2023-03-20T12:05:42.017Z,100897.06
2023-03-20T12:08:37.918Z,100904.63
2023-03-20T12:11:34.194Z,100900.22
2023-03-20T12:14:00.833Z,100902.69
2023-03-20T12:16:27.673Z,100890.44
2023-03-20T12:19:01.908Z,100886.78
2023-03-20T12:22:00.816Z,100895.03
2023-03-20T12:24:49.525Z,100864.56
2023-03-20T12:27:29.970Z,100900.63
2023-03-20T12:30:38.398Z,100889.84
2023-03-20T12:33:21.875Z,100881.31
2023-03-20T12:35:50.007Z,100866.06
2023-03-20T12:38:32.985Z,100851.16
2023-03-20T12:41:18.305Z,100861.56
2023-03-20T12:43:56.776Z,100856.88
2023-03-20T12:47:01.631Z,100858.81
2023-03-20T12:49:40.351Z,100844.34
2023-03-20T12:52:15.549Z,100848.63
2023-03-20T12:55:03.963Z,100838.72
2023-03-20T12:57:39.467Z,100849.41
2023-03-20T13:00:17.165Z,100851.94
2023-03-20T13:02:58.926Z,100850.28
2023-03-20T13:05:41.557Z,100847.31
2023-03-20T13:08:40.134Z,100836.72
2023-03-20T13:11:21.980Z,100847.78
2023-03-20T13:13:57.143Z,100802.44
2023-03-20T13:16:53.931Z,100826.41
2023-03-20T13:19:46.667Z,100827.19
2023-03-20T13:22:20.713Z,100825.56
2023-03-20T13:24:52.758Z,100823.72
2023-03-20T13:27:42.129Z,100828.84
2023-03-20T13:30:30.673Z,100823.78
2023-03-20T13:33:19.309Z,100836.00
2023-03-20T13:36:05.140Z,100823.16
2023-03-20T13:38:35.080Z,100819.69
2023-03-20T13:41:03.498Z,100819.09
2023-03-20T13:43:33.660Z,100817.03
2023-03-20T13:46:08.854Z,100811.31
2023-03-20T13:48:42.563Z,100805.53
2023-03-20T13:51:34.859Z,100811.50
2023-03-20T13:54:24.632Z,100811.84
2023-03-20T13:57:19.185Z,100802.78
2023-03-20T13:59:56.657Z,100797.50
2023-03-20T14:02:52.597Z,100798.38
2023-03-20T14:05:23.064Z,100796.25
2023-03-20T14:07:50.546Z,100796.56
2023-03-20T14:10:23.204Z,100802.25
2023-03-20T14:12:53.903Z,100790.75
2023-03-20T14:15:25.032Z,100787.50
2023-03-20T14:17:52.165Z,100786.88
2023-03-20T14:20:40.943Z,100786.88
2023-03-20T14:23:07.819Z,100793.50
2023-03-20T14:25:41.200Z,100789.63
2023-03-20T14:28:28.954Z,100790.44
2023-03-20T14:31:21.046Z,100795.13
2023-03-20T14:33:49.128Z,100778.53
2023-03-20T14:36:22.871Z,100791.44
2023-03-20T14:39:05.823Z,100795.63
2023-03-20T14:41:38.339Z,100797.25
2023-03-20T14:44:22.817Z,100788.69
2023-03-20T14:47:14.372Z,100792.75
2023-03-20T14:50:07.162Z,100792.97
2023-03-20T14:52:45.283Z,100783.06
2023-03-20T14:55:17.899Z,100794.28
2023-03-20T14:57:56.190Z,100778.19
2023-03-20T15:00:24.227Z,100787.03
2023-03-20T15:02:52.349Z,100786.22
2023-03-20T15:05:25.529Z,100782.66
2023-03-20T15:07:52.894Z,100781.53
2023-03-20T15:10:19.872Z,100787.53
2023-03-20T15:12:46.622Z,100788.97
2023-03-20T15:15:31.472Z,100782.16
2023-03-20T15:18:10.474Z,100786.66
2023-03-20T15:20:37.395Z,100766.28
2023-03-20T15:23:06.063Z,100794.06
2023-03-20T15:25:36.358Z,100791.22
2023-03-20T15:28:07.134Z,100785.00
2023-03-20T15:30:36.567Z,100795.72
2023-03-20T15:33:03.363Z,100794.91
2023-03-20T15:35:30.072Z,100797.66
2023-03-20T15:37:57.416Z,100796.44
2023-03-20T15:40:34.544Z,100806.84
2023-03-20T15:43:24.629Z,100785.06
2023-03-20T15:46:02.963Z,100802.78
2023-03-20T15:48:39.986Z,100796.66
2023-03-20T15:51:06.666Z,100799.41
2023-03-20T15:53:35.369Z,100794.38
2023-03-20T15:56:17.401Z,100793.28
2023-03-20T15:58:44.823Z,100793.28
2023-03-20T16:01:16.946Z,100792.16
2023-03-20T16:03:43.616Z,100786.66
2023-03-20T16:06:11.582Z,100786.66
2023-03-20T16:08:39.116Z,100786.66
2023-03-20T16:11:16.019Z,100775.22
2023-03-20T16:13:47.040Z,100777.81
2023-03-20T16:16:19.022Z,100767.13
2023-03-20T16:18:48.010Z,100766.63
2023-03-20T16:21:42.835Z,100779.94
2023-03-20T16:24:11.555Z,100773.16
2023-03-20T16:26:40.299Z,100771.13
2023-03-20T16:29:07.629Z,100792.53
2023-03-20T16:31:35.478Z,100781.66
2023-03-20T16:34:05.714Z,100766.28
2023-03-20T16:36:34.333Z,100782.78
2023-03-20T16:39:16.253Z,100784.97
2023-03-20T16:41:43.188Z,100774.41
2023-03-20T16:44:18.259Z,100777.44
2023-03-20T16:46:58.088Z,100780.28
2023-03-20T16:49:32.112Z,100773.59
2023-03-20T16:51:59.796Z,100776.66
2023-03-20T16:54:29.839Z,100785.44
2023-03-20T16:56:56.631Z,100795.13
2023-03-20T16:59:24.261Z,100783.41
2023-03-20T17:01:54.058Z,100790.34
2023-03-20T17:04:28.349Z,100775.72
2023-03-20T17:06:58.394Z,100787.13
2023-03-20T17:09:30.422Z,100789.88
2023-03-20T17:12:01.306Z,100783.47
2023-03-20T17:14:28.027Z,100791.28
2023-03-20T17:16:56.546Z,100780.63
2023-03-20T17:19:23.397Z,100789.53
2023-03-20T17:21:50.136Z,100792.63
2023-03-20T17:24:16.916Z,100787.97
2023-03-20T17:26:45.910Z,100806.28
2023-03-20T17:29:12.667Z,100796.53
2023-03-20T17:31:39.313Z,100797.66
2023-03-20T17:34:06.158Z,100811.59
2023-03-20T17:36:34.524Z,100801.59
2023-03-20T17:39:01.368Z,100811.38
2023-03-20T17:41:28.287Z,100812.13
2023-03-20T17:43:58.069Z,100817.72
2023-03-20T17:46:29.338Z,100812.22
2023-03-20T17:49:04.657Z,100810.69
2023-03-20T17:51:31.412Z,100821.81
2023-03-20T17:53:58.191Z,100791.66
2023-03-20T17:56:29.935Z,100827.09
2023-03-20T17:58:57.484Z,100819.56
2023-03-20T18:01:24.184Z,100826.06
2023-03-20T18:03:50.970Z,100830.25
2023-03-20T18:06:31.470Z,100823.41
2023-03-20T18:08:58.266Z,100825.88
2023-03-20T18:11:25.077Z,100817.53
2023-03-20T18:13:51.745Z,100824.16
2023-03-20T18:16:20.880Z,100826.50
2023-03-20T18:18:47.858Z,100822.22
2023-03-20T18:21:15.272Z,100816.09
2023-03-20T18:23:41.950Z,100818.25
2023-03-20T18:26:20.188Z,100823.00
2023-03-20T18:28:47.092Z,100814.88
2023-03-20T18:31:18.764Z,100818.09
2023-03-20T18:33:48.921Z,100823.00
2023-03-20T18:36:17.187Z,100802.00
2023-03-20T18:38:43.931Z,100810.25
2023-03-20T18:41:11.697Z,100815.03
2023-03-20T18:43:39.404Z,100798.22
2023-03-20T18:46:06.727Z,100810.50
2023-03-20T18:48:33.487Z,100811.84
2023-03-20T18:51:02.915Z,100809.09
2023-03-20T18:53:29.912Z,100814.41
2023-03-20T18:55:56.611Z,100810.41
2023-03-20T18:58:27.665Z,100815.81
2023-03-20T19:00:55.132Z,100822.63
2023-03-20T19:03:25.738Z,100810.81
2023-03-20T19:05:52.756Z,100827.63
2023-03-20T19:08:19.694Z,100817.53
2023-03-20T19:10:46.416Z,100832.09
2023-03-20T19:13:15.212Z,100827.84
2023-03-20T19:15:41.976Z,100829.69
2023-03-20T19:18:27.365Z,100826.41
2023-03-20T19:20:55.706Z,100822.72
2023-03-20T19:23:23.466Z,100815.22
2023-03-20T19:25:51.508Z,100819.28
2023-03-20T19:28:38.864Z,100790.34
2023-03-20T19:31:07.011Z,100808.69
2023-03-20T19:33:34.374Z,100808.47
2023-03-20T19:36:03.702Z,100805.59
2023-03-20T19:38:30.979Z,100804.06
2023-03-20T19:40:59.238Z,100817.69
2023-03-20T19:43:26.132Z,100820.97
2023-03-20T19:45:57.948Z,100820.34
2023-03-20T19:48:50.868Z,100814.22
2023-03-20T19:51:25.540Z,100811.63
2023-03-20T19:53:52.530Z,100821.19
2023-03-20T19:56:20.280Z,100811.44
2023-03-20T19:58:47.721Z,100815.94
2023-03-20T20:01:19.947Z,100815.50
2023-03-20T20:03:46.809Z,100821.19
2023-03-20T20:06:14.545Z,100813.25
2023-03-20T20:08:48.395Z,100805.09
2023-03-20T20:11:17.483Z,100812.63
2023-03-20T20:16:31.419Z,100812.63
2023-03-20T20:18:58.156Z,100811.81
2023-03-20T20:24:11.689Z,100785.63
2023-03-20T20:26:41.258Z,100805.50
2023-03-20T20:29:16.761Z,100793.78
2023-03-20T20:31:43.890Z,100784.16
2023-03-20T20:39:45.187Z,100799.91
2023-03-20T20:42:12.448Z,100802.22
2023-03-20T20:44:40.030Z,100796.09
2023-03-20T20:47:07.282Z,100798.84
2023-03-20T20:49:34.124Z,100779.75
2023-03-20T20:52:00.839Z,100796.59
2023-03-20T20:54:27.807Z,100800.19
2023-03-20T20:56:54.578Z,100800.81
2023-03-20T20:59:21.444Z,100795.09
2023-03-20T21:01:48.901Z,100793.16
2023-03-20T21:04:15.712Z,100801.28
2023-03-20T21:09:29.245Z,100800.81
2023-03-20T21:11:55.908Z,100798.97
2023-03-20T21:14:22.533Z,100809.81
2023-03-20T21:16:49.283Z,100798.78
2023-03-20T21:19:16.088Z,100800.88
2023-03-20T21:21:42.775Z,100784.16
2023-03-20T21:24:30.570Z,100777.63
2023-03-20T21:26:58.687Z,100797.97
2023-03-20T21:29:25.694Z,100796.03
2023-03-20T21:31:52.523Z,100776.63
2023-03-20T21:34:19.300Z,100771.88
2023-03-20T21:36:48.981Z,100793.72
2023-03-20T21:39:17.027Z,100790.78
2023-03-20T21:41:43.840Z,100799.22
2023-03-20T21:44:16.694Z,100804.44
2023-03-20T21:47:22.667Z,100796.78
2023-03-20T21:50:30.832Z,100792.63
2023-03-20T21:56:09.172Z,100790.03
2023-03-20T22:01:21.764Z,100783.50
2023-03-20T22:03:54.969Z,100796.19
2023-03-20T22:07:05.943Z,100804.72
2023-03-20T22:15:20.083Z,100799.38
2023-03-20T22:17:56.165Z,100802.13
2023-03-20T22:23:43.412Z,100802.41
2023-03-20T22:26:38.234Z,100803.97
2023-03-20T22:29:14.926Z,100799.28
2023-03-20T22:37:45.925Z,100790.09
2023-03-20T22:45:11.566Z,100799.88
2023-03-20T22:47:38.317Z,100799.69
2023-03-20T22:50:05.474Z,100796.25
2023-03-20T22:52:45.892Z,100787.59
2023-03-20T22:55:16.013Z,100789.13
2023-03-20T22:57:53.032Z,100798.50
2023-03-20T23:00:27.072Z,100784.56
2023-03-20T23:02:57.407Z,100789.88
2023-03-20T23:05:27.093Z,100788.72
2023-03-20T23:07:53.684Z,100776.34
2023-03-20T23:10:20.598Z,100792.25
2023-03-20T23:12:47.192Z,100773.69
2023-03-20T23:15:13.969Z,100781.22
2023-03-20T23:17:40.645Z,100783.47
2023-03-20T23:20:12.257Z,100770.22
2023-03-20T23:22:40.629Z,100777.03
2023-03-20T23:25:16.471Z,100766.16
2023-03-20T23:27:50.398Z,100778.34
2023-03-20T23:30:16.991Z,100773.47
2023-03-20T23:32:43.548Z,100748.06
2023-03-20T23:35:10.318Z,100772.97
2023-03-20T23:37:36.919Z,100770.03
2023-03-20T23:40:04.487Z,100766.56
2023-03-20T23:42:31.224Z,100773.28
2023-03-20T23:45:04.458Z,100775.84
2023-03-20T23:47:44.392Z,100768.00
2023-03-20T23:50:17.276Z,100752.72
2023-03-20T23:52:57.145Z,100765.34
2023-03-20T23:55:27.813Z,100763.72
2023-03-20T23:57:54.334Z,100749.38
